createdAt,value
2022-10-13T00:01:31.006Z,98961.00
2022-10-13T00:04:00.159Z,98960.00
2022-10-13T00:06:30.451Z,98959.00
2022-10-13T00:09:01.447Z,98972.00
2022-10-13T00:11:32.060Z,98979.00
2022-10-13T00:14:05.107Z,98977.00
2022-10-13T00:16:35.885Z,98982.00
2022-10-13T00:19:05.029Z,98987.00
2022-10-13T00:21:34.149Z,98984.00
2022-10-13T00:24:03.222Z,99001.00
2022-10-13T00:26:32.408Z,99000.00
2022-10-13T00:29:01.488Z,99011.00
2022-10-13T00:31:33.118Z,99004.00
2022-10-13T00:34:03.332Z,99009.00
2022-10-13T00:36:33.441Z,99004.00
2022-10-13T00:39:02.665Z,99016.00
2022-10-13T00:41:31.961Z,99025.00
2022-10-13T00:44:40.527Z,99023.00
2022-10-13T00:47:10.162Z,99023.00
2022-10-13T00:49:39.831Z,99022.00
2022-10-13T00:52:09.204Z,99024.00
2022-10-13T00:54:38.715Z,99021.00
2022-10-13T00:57:09.745Z,99029.00
2022-10-13T00:59:41.228Z,99031.00
2022-10-13T01:02:11.465Z,99036.00
2022-10-13T01:04:45.354Z,99038.00
2022-10-13T01:07:19.511Z,99038.00
2022-10-13T01:09:48.684Z,99044.00
2022-10-13T01:13:11.578Z,99042.00
2022-10-13T01:16:24.761Z,99050.00
2022-10-13T01:19:39.726Z,99043.00
2022-10-13T01:22:53.114Z,99047.00
2022-10-13T01:26:13.663Z,99055.00
2022-10-13T01:29:31.945Z,99051.00
2022-10-13T01:32:45.071Z,99057.00
2022-10-13T01:35:50.803Z,99072.00
2022-10-13T01:38:57.289Z,99076.00
2022-10-13T01:41:51.033Z,99080.00
2022-10-13T01:44:41.342Z,99085.00
2022-10-13T01:47:14.253Z,99095.00
2022-10-13T01:49:44.995Z,99095.00
2022-10-13T01:52:22.035Z,99091.00
2022-10-13T01:54:54.851Z,99088.00
2022-10-13T01:57:46.179Z,99092.00
2022-10-13T02:00:21.480Z,99098.00
2022-10-13T02:03:22.195Z,99097.00
2022-10-13T02:06:23.935Z,99091.00
2022-10-13T02:09:29.791Z,99097.00
2022-10-13T02:12:15.304Z,99100.00
2022-10-13T02:14:48.209Z,99103.00
2022-10-13T02:17:18.519Z,99103.00
2022-10-13T02:19:51.423Z,99109.00
2022-10-13T02:22:23.635Z,99103.00
2022-10-13T02:24:53.377Z,99114.00
2022-10-13T02:27:24.376Z,99110.00
2022-10-13T02:29:58.512Z,99115.00
2022-10-13T02:32:28.458Z,99119.00
2022-10-13T02:34:57.655Z,99120.00
2022-10-13T02:37:27.025Z,99114.00
2022-10-13T02:39:56.189Z,99116.00
2022-10-13T02:42:25.208Z,99114.00
2022-10-13T02:44:54.336Z,99118.00
2022-10-13T02:47:26.539Z,99113.00
2022-10-13T02:49:55.625Z,99116.00
2022-10-13T02:52:25.142Z,99115.00
2022-10-13T02:54:54.324Z,99114.00
2022-10-13T02:57:23.640Z,99113.00
2022-10-13T02:59:52.770Z,99109.00
2022-10-13T03:02:22.637Z,99114.00
2022-10-13T03:04:52.766Z,99111.00
2022-10-13T03:07:22.404Z,99119.00
2022-10-13T03:09:51.488Z,99113.00
2022-10-13T03:12:20.821Z,99111.00
2022-10-13T03:14:52.387Z,99102.00
2022-10-13T03:17:21.620Z,99108.00
2022-10-13T03:19:51.064Z,99102.00
2022-10-13T03:22:20.512Z,99097.00
2022-10-13T03:24:50.021Z,99089.00
2022-10-13T03:27:19.224Z,99080.00
2022-10-13T03:29:48.521Z,99079.00
2022-10-13T03:32:18.177Z,99079.00
2022-10-13T03:34:47.586Z,99069.00
2022-10-13T03:37:16.778Z,99068.00
2022-10-13T03:39:46.027Z,99058.00
2022-10-13T03:42:15.439Z,99062.00
2022-10-13T03:44:44.604Z,99048.00
2022-10-13T03:47:13.787Z,99043.00
2022-10-13T03:49:43.038Z,99037.00
2022-10-13T03:52:12.246Z,99035.00
2022-10-13T03:54:41.506Z,99034.00
2022-10-13T03:57:10.705Z,99019.00
2022-10-13T03:59:42.403Z,99020.00
2022-10-13T04:02:11.730Z,99015.00
2022-10-13T04:04:41.308Z,99011.00
2022-10-13T04:07:10.764Z,99011.00
2022-10-13T04:09:39.970Z,99004.00
2022-10-13T04:12:09.473Z,98996.00
2022-10-13T04:14:40.594Z,98996.00
2022-10-13T04:17:10.016Z,98988.00
2022-10-13T04:19:39.275Z,98990.00
2022-10-13T04:22:08.776Z,98979.00
2022-10-13T04:24:38.389Z,98980.00
2022-10-13T04:27:07.567Z,98982.00
2022-10-13T04:29:36.853Z,98982.00
2022-10-13T04:32:06.367Z,98971.00
2022-10-13T04:34:35.637Z,98962.00
2022-10-13T04:37:04.674Z,98963.00
2022-10-13T04:39:34.378Z,98959.00
2022-10-13T04:42:03.836Z,98960.00
2022-10-13T04:44:32.892Z,98951.00
2022-10-13T04:47:02.382Z,98944.00
2022-10-13T04:49:31.632Z,98933.00
2022-10-13T04:52:00.843Z,98937.00
2022-10-13T04:54:29.989Z,98930.00
2022-10-13T04:57:00.369Z,98914.00
2022-10-13T04:59:30.026Z,98922.00
2022-10-13T05:01:59.070Z,98909.00
2022-10-13T05:04:28.341Z,98906.00
2022-10-13T05:07:17.119Z,98905.00
2022-10-13T05:09:46.915Z,98911.00
2022-10-13T05:12:17.061Z,98909.00
2022-10-13T05:14:46.644Z,98908.00
2022-10-13T05:17:15.976Z,98900.00
2022-10-13T05:19:45.418Z,98894.00
2022-10-13T05:22:14.509Z,98896.00
2022-10-13T05:24:43.595Z,98896.00
2022-10-13T05:27:14.911Z,98888.00
2022-10-13T05:29:44.000Z,98884.00
2022-10-13T05:32:13.142Z,98891.00
2022-10-13T05:34:42.321Z,98888.00
2022-10-13T05:37:11.461Z,98891.00
2022-10-13T05:39:40.521Z,98890.00
2022-10-13T05:42:09.655Z,98884.00
2022-10-13T05:44:38.797Z,98880.00
2022-10-13T05:47:07.925Z,98873.00
2022-10-13T05:49:42.891Z,98871.00
2022-10-13T05:52:14.376Z,98856.00
2022-10-13T05:54:53.535Z,98853.00
2022-10-13T05:57:43.042Z,98855.00
2022-10-13T06:00:17.041Z,98843.00
2022-10-13T06:02:58.570Z,98840.00
2022-10-13T06:05:29.390Z,98834.00
2022-10-13T06:07:59.131Z,98829.00
2022-10-13T06:10:28.911Z,98819.00
2022-10-13T06:12:58.151Z,98818.00
2022-10-13T06:15:28.419Z,98816.00
2022-10-13T06:17:57.804Z,98813.00
2022-10-13T06:20:30.674Z,98809.00
2022-10-13T06:22:59.799Z,98803.00
2022-10-13T06:25:30.304Z,98801.00
2022-10-13T06:28:01.745Z,98800.00
2022-10-13T06:30:30.913Z,98791.00
2022-10-13T06:32:59.983Z,98775.00
2022-10-13T06:35:29.212Z,98771.00
2022-10-13T06:37:59.303Z,98763.00
2022-10-13T06:40:28.452Z,98757.00
2022-10-13T06:42:57.532Z,98762.00
2022-10-13T06:45:26.686Z,98759.00
2022-10-13T06:47:56.948Z,98753.00
2022-10-13T06:50:26.533Z,98752.00
2022-10-13T06:52:58.012Z,98756.00
2022-10-13T06:55:27.149Z,98753.00
2022-10-13T06:57:56.221Z,98742.00
2022-10-13T07:00:25.415Z,98740.00
2022-10-13T07:02:54.451Z,98732.00
2022-10-13T07:05:23.628Z,98730.00
2022-10-13T07:07:57.839Z,98734.00
2022-10-13T07:10:27.083Z,98733.00
2022-10-13T07:12:56.834Z,98727.00
2022-10-13T07:15:26.166Z,98730.00
2022-10-13T07:17:56.022Z,98726.00
2022-10-13T07:20:26.199Z,98724.00
2022-10-13T07:22:56.392Z,98716.00
2022-10-13T07:25:25.685Z,98707.00
2022-10-13T07:27:54.803Z,98712.00
2022-10-13T07:30:24.383Z,98707.00
2022-10-13T07:32:53.491Z,98693.00
2022-10-13T07:35:26.943Z,98685.00
2022-10-13T07:37:59.773Z,98681.00
2022-10-13T07:40:28.969Z,98676.00
2022-10-13T07:42:58.985Z,98678.00
2022-10-13T07:45:28.557Z,98672.00
2022-10-13T07:47:58.804Z,98665.00
2022-10-13T07:50:28.004Z,98662.00
2022-10-13T07:52:57.065Z,98662.00
2022-10-13T07:55:43.607Z,98657.00
2022-10-13T07:58:13.929Z,98655.00
2022-10-13T08:00:43.721Z,98660.00
2022-10-13T08:03:12.941Z,98649.00
2022-10-13T08:05:42.271Z,98652.00
2022-10-13T08:08:11.414Z,98648.00
2022-10-13T08:10:41.015Z,98646.00
2022-10-13T08:13:12.184Z,98648.00
2022-10-13T08:15:47.555Z,98645.00
2022-10-13T08:18:17.290Z,98646.00
2022-10-13T08:20:47.599Z,98640.00
2022-10-13T08:23:16.885Z,98647.00
2022-10-13T08:25:46.600Z,98655.00
2022-10-13T08:28:26.855Z,98656.00
2022-10-13T08:31:00.442Z,98656.00
2022-10-13T08:33:29.764Z,98657.00
2022-10-13T08:35:58.961Z,98658.00
2022-10-13T08:38:28.153Z,98660.00
2022-10-13T08:40:57.398Z,98661.00
2022-10-13T08:43:28.380Z,98661.00
2022-10-13T08:46:02.377Z,98666.00
2022-10-13T08:48:41.875Z,98664.00
2022-10-13T08:51:16.909Z,98653.00
2022-10-13T08:53:48.397Z,98656.00
2022-10-13T08:56:22.614Z,98656.00
2022-10-13T08:58:55.418Z,98645.00
2022-10-13T09:01:36.893Z,98648.00
2022-10-13T09:04:41.828Z,98646.00
2022-10-13T09:07:22.255Z,98636.00
2022-10-13T09:09:56.876Z,98636.00
2022-10-13T09:12:27.844Z,98636.00
2022-10-13T09:15:12.845Z,98632.00
2022-10-13T09:17:43.342Z,98629.00
2022-10-13T09:20:24.173Z,98622.00
2022-10-13T09:23:15.979Z,98622.00
2022-10-13T09:25:51.948Z,98626.00
2022-10-13T09:28:33.274Z,98622.00
2022-10-13T09:31:19.751Z,98615.00
2022-10-13T09:34:00.567Z,98624.00
2022-10-13T09:36:30.004Z,98619.00
2022-10-13T09:39:18.171Z,98627.00
2022-10-13T09:41:47.413Z,98624.00
2022-10-13T09:44:28.799Z,98625.00
2022-10-13T09:47:21.404Z,98622.00
2022-10-13T09:50:31.623Z,98617.00
2022-10-13T09:53:40.962Z,98616.00
2022-10-13T09:56:20.722Z,98621.00
2022-10-13T09:59:14.761Z,98624.00
2022-10-13T10:01:48.827Z,98621.00
2022-10-13T10:04:38.790Z,98617.00
2022-10-13T10:07:24.176Z,98622.00
2022-10-13T10:10:07.649Z,98615.00
2022-10-13T10:12:43.730Z,98609.00
2022-10-13T10:15:50.584Z,98608.00
2022-10-13T10:18:37.846Z,98608.00
2022-10-13T10:21:30.894Z,98610.00
2022-10-13T10:24:28.648Z,98613.00
2022-10-13T10:30:22.469Z,98605.00
2022-10-13T10:33:10.206Z,98607.00
2022-10-13T10:36:04.149Z,98605.00
2022-10-13T10:38:53.912Z,98606.00
2022-10-13T10:41:47.983Z,98605.00
2022-10-13T10:44:31.762Z,98608.00
2022-10-13T10:47:12.564Z,98606.00
2022-10-13T10:49:42.716Z,98613.00
2022-10-13T10:52:26.107Z,98607.00
2022-10-13T10:55:11.424Z,98602.00
2022-10-13T10:57:59.859Z,98608.00
2022-10-13T11:00:29.770Z,98617.00
2022-10-13T11:03:10.841Z,98618.00
2022-10-13T11:06:32.941Z,98610.00
2022-10-13T11:09:03.270Z,98605.00
2022-10-13T11:11:38.266Z,98610.00
2022-10-13T11:14:07.280Z,98611.00
2022-10-13T11:17:03.993Z,98614.00
2022-10-13T11:19:36.344Z,98617.00
2022-10-13T11:22:16.440Z,98624.00
2022-10-13T11:24:54.765Z,98623.00
2022-10-13T11:27:30.074Z,98633.00
2022-10-13T11:30:02.283Z,98630.00
2022-10-13T11:32:37.394Z,98629.00
2022-10-13T11:35:09.303Z,98627.00
2022-10-13T11:38:05.944Z,98631.00
2022-10-13T11:41:19.995Z,98632.00
2022-10-13T11:44:05.137Z,98637.00
2022-10-13T11:47:18.813Z,98653.00
2022-10-13T11:50:08.772Z,98649.00
2022-10-13T11:53:19.479Z,98647.00
2022-10-13T11:55:57.493Z,98645.00
2022-10-13T11:58:32.112Z,98650.00
2022-10-13T12:01:07.289Z,98639.00
2022-10-13T12:03:43.189Z,98640.00
2022-10-13T12:06:34.303Z,98644.00
2022-10-13T12:09:20.654Z,98641.00
2022-10-13T12:12:22.816Z,98647.00
2022-10-13T12:14:58.724Z,98641.00
2022-10-13T12:17:36.312Z,98648.00
2022-10-13T12:20:26.978Z,98646.00
2022-10-13T12:22:58.340Z,98648.00
2022-10-13T12:25:32.280Z,98656.00
2022-10-13T12:28:02.441Z,98649.00
2022-10-13T12:30:39.741Z,98654.00
2022-10-13T12:33:41.990Z,98654.00
2022-10-13T12:36:24.117Z,98662.00
2022-10-13T12:38:59.372Z,98657.00
2022-10-13T12:41:46.240Z,98664.00
2022-10-13T12:44:22.423Z,98672.00
2022-10-13T12:46:59.889Z,98679.00
2022-10-13T12:49:38.283Z,98677.00
2022-10-13T12:52:16.033Z,98682.00
2022-10-13T12:55:00.207Z,98684.00
2022-10-13T12:57:39.278Z,98691.00
2022-10-13T13:00:24.527Z,98688.00
2022-10-13T13:03:07.612Z,98688.00
2022-10-13T13:05:51.687Z,98702.00
2022-10-13T13:08:26.154Z,98700.00
2022-10-13T13:11:04.798Z,98709.00
2022-10-13T13:13:36.402Z,98704.00
2022-10-13T13:16:34.688Z,98712.00
2022-10-13T13:19:03.829Z,98719.00
2022-10-13T13:21:32.992Z,98714.00
2022-10-13T13:24:04.299Z,98717.00
2022-10-13T13:26:48.059Z,98722.00
2022-10-13T13:29:17.189Z,98720.00
2022-10-13T13:31:46.295Z,98724.00
2022-10-13T13:34:15.349Z,98728.00
2022-10-13T13:36:44.711Z,98733.00
2022-10-13T13:39:19.195Z,98734.00
2022-10-13T13:41:48.310Z,98743.00
2022-10-13T13:44:17.461Z,98748.00
2022-10-13T13:46:46.571Z,98746.00
2022-10-13T13:49:15.743Z,98745.00
2022-10-13T13:51:44.825Z,98759.00
2022-10-13T13:54:14.008Z,98749.00
2022-10-13T13:56:43.067Z,98754.00
2022-10-13T13:59:12.211Z,98757.00
2022-10-13T14:01:41.367Z,98758.00
2022-10-13T14:04:10.639Z,98761.00
2022-10-13T14:06:39.779Z,98763.00
2022-10-13T14:09:08.883Z,98761.00
2022-10-13T14:11:37.978Z,98761.00
2022-10-13T14:14:08.205Z,98763.00
2022-10-13T14:16:37.388Z,98761.00
2022-10-13T14:19:06.608Z,98765.00
2022-10-13T14:21:37.145Z,98765.00
2022-10-13T14:24:07.271Z,98766.00
2022-10-13T14:26:36.415Z,98766.00
2022-10-13T14:31:46.524Z,98775.00
2022-10-13T14:34:15.941Z,98776.00
2022-10-13T14:36:44.995Z,98774.00
2022-10-13T14:39:14.105Z,98774.00
2022-10-13T14:41:43.240Z,98775.00
2022-10-13T14:44:14.801Z,98773.00
2022-10-13T14:46:44.936Z,98771.00
2022-10-13T14:49:14.431Z,98772.00
2022-10-13T14:51:43.693Z,98773.00
2022-10-13T14:54:12.898Z,98772.00
2022-10-13T14:56:42.348Z,98771.00
2022-10-13T14:59:13.603Z,98769.00
2022-10-13T15:01:43.912Z,98769.00
2022-10-13T15:04:13.278Z,98766.00
2022-10-13T15:06:42.916Z,98773.00
2022-10-13T15:09:13.677Z,98764.00
2022-10-13T15:11:42.796Z,98763.00
2022-10-13T15:14:11.911Z,98770.00
2022-10-13T15:16:41.005Z,98760.00
2022-10-13T15:19:10.231Z,98767.00
2022-10-13T15:21:39.374Z,98766.00
2022-10-13T15:24:10.046Z,98765.00
2022-10-13T15:26:39.200Z,98756.00
2022-10-13T15:29:08.441Z,98761.00
2022-10-13T15:31:38.036Z,98760.00
2022-10-13T15:34:07.203Z,98761.00
2022-10-13T15:36:36.608Z,98758.00
2022-10-13T15:39:05.959Z,98760.00
2022-10-13T15:41:35.097Z,98755.00
2022-10-13T15:44:04.338Z,98762.00
2022-10-13T15:46:33.459Z,98761.00
2022-10-13T15:49:02.489Z,98755.00
2022-10-13T15:51:33.826Z,98750.00
2022-10-13T15:54:03.099Z,98746.00
2022-10-13T15:56:32.247Z,98749.00
2022-10-13T15:59:01.474Z,98741.00
2022-10-13T16:01:30.600Z,98746.00
2022-10-13T16:03:59.703Z,98739.00
2022-10-13T16:06:28.912Z,98740.00
2022-10-13T16:08:58.114Z,98735.00
2022-10-13T16:11:28.569Z,98748.00
2022-10-13T16:13:57.696Z,98744.00
2022-10-13T16:16:28.922Z,98746.00
2022-10-13T16:18:58.182Z,98738.00
2022-10-13T16:21:28.383Z,98740.00
2022-10-13T16:23:57.762Z,98740.00
2022-10-13T16:26:26.914Z,98744.00
2022-10-13T16:28:59.481Z,98733.00
2022-10-13T16:31:29.172Z,98744.00
2022-10-13T16:33:58.328Z,98740.00
2022-10-13T16:36:27.305Z,98741.00
2022-10-13T16:38:57.122Z,98744.00
2022-10-13T16:41:26.847Z,98748.00
2022-10-13T16:43:56.655Z,98736.00
2022-10-13T16:46:25.826Z,98742.00
2022-10-13T16:48:54.920Z,98746.00
2022-10-13T16:51:26.505Z,98741.00
2022-10-13T16:54:04.473Z,98748.00
2022-10-13T16:56:34.456Z,98737.00
2022-10-13T16:59:06.876Z,98742.00
2022-10-13T17:01:38.101Z,98738.00
2022-10-13T17:04:08.021Z,98735.00
2022-10-13T17:06:39.568Z,98730.00
2022-10-13T17:09:09.586Z,98732.00
2022-10-13T17:11:39.680Z,98730.00
2022-10-13T17:14:10.707Z,98731.00
2022-10-13T17:16:39.932Z,98732.00
2022-10-13T17:19:09.605Z,98727.00
2022-10-13T17:21:39.117Z,98733.00
2022-10-13T17:24:08.369Z,98731.00
2022-10-13T17:26:37.842Z,98725.00
2022-10-13T17:29:06.941Z,98719.00
2022-10-13T17:31:36.711Z,98717.00
2022-10-13T17:34:07.032Z,98717.00
2022-10-13T17:36:36.545Z,98717.00
2022-10-13T17:39:11.382Z,98721.00
2022-10-13T17:41:40.580Z,98721.00
2022-10-13T17:44:09.714Z,98719.00
2022-10-13T17:46:39.543Z,98724.00
2022-10-13T17:49:12.844Z,98729.00
2022-10-13T17:51:47.497Z,98726.00
2022-10-13T17:54:16.941Z,98728.00
2022-10-13T17:56:48.455Z,98725.00
2022-10-13T17:59:19.401Z,98727.00
2022-10-13T18:01:49.288Z,98728.00
2022-10-13T18:04:21.267Z,98725.00
2022-10-13T18:06:50.490Z,98715.00
2022-10-13T18:09:25.174Z,98711.00
2022-10-13T18:11:56.264Z,98705.00
2022-10-13T18:14:26.724Z,98703.00
2022-10-13T18:16:57.265Z,98697.00
2022-10-13T18:19:26.436Z,98698.00
2022-10-13T18:21:55.548Z,98701.00
2022-10-13T18:24:26.502Z,98707.00
2022-10-13T18:26:55.678Z,98705.00
2022-10-13T18:29:25.600Z,98706.00
2022-10-13T18:31:59.994Z,98703.00
2022-10-13T18:34:29.200Z,98706.00
2022-10-13T18:36:59.137Z,98713.00
2022-10-13T18:39:30.184Z,98706.00
2022-10-13T18:41:59.816Z,98696.00
2022-10-13T18:44:29.402Z,98690.00
2022-10-13T18:46:58.618Z,98695.00
2022-10-13T18:49:31.742Z,98698.00
2022-10-13T18:52:04.739Z,98699.00
2022-10-13T18:54:34.014Z,98696.00
2022-10-13T18:57:03.058Z,98693.00
2022-10-13T18:59:32.306Z,98693.00
2022-10-13T19:02:01.299Z,98691.00
2022-10-13T19:04:30.468Z,98689.00
2022-10-13T19:06:59.537Z,98684.00
2022-10-13T19:09:28.758Z,98682.00
2022-10-13T19:11:58.191Z,98680.00
2022-10-13T19:14:28.492Z,98682.00
2022-10-13T19:17:01.810Z,98688.00
2022-10-13T19:19:31.461Z,98687.00
2022-10-13T19:22:00.710Z,98686.00
2022-10-13T19:24:29.911Z,98687.00
2022-10-13T19:26:59.170Z,98687.00
2022-10-13T19:29:28.760Z,98693.00
2022-10-13T19:31:58.428Z,98683.00
2022-10-13T19:34:27.671Z,98691.00
2022-10-13T19:37:01.093Z,98686.00
2022-10-13T19:39:30.807Z,98687.00
2022-10-13T19:42:00.443Z,98695.00
2022-10-13T19:44:29.919Z,98697.00
2022-10-13T19:46:59.076Z,98697.00
2022-10-13T19:49:28.202Z,98695.00
2022-10-13T19:51:57.494Z,98700.00
2022-10-13T19:54:31.444Z,98698.00
2022-10-13T19:57:00.647Z,98702.00
2022-10-13T19:59:29.748Z,98695.00
2022-10-13T20:01:58.913Z,98696.00
2022-10-13T20:04:28.243Z,98695.00
2022-10-13T20:06:57.334Z,98701.00
2022-10-13T20:09:26.510Z,98701.00
2022-10-13T20:11:55.707Z,98699.00
2022-10-13T20:14:24.920Z,98703.00
2022-10-13T20:16:54.417Z,98708.00
2022-10-13T20:19:23.563Z,98702.00
2022-10-13T20:21:53.854Z,98692.00
2022-10-13T20:24:24.765Z,98693.00
2022-10-13T20:26:53.913Z,98684.00
2022-10-13T20:29:23.118Z,98699.00
2022-10-13T20:31:52.817Z,98692.00
2022-10-13T20:34:21.933Z,98689.00
2022-10-13T20:36:52.247Z,98697.00
2022-10-13T20:39:21.575Z,98702.00
2022-10-13T20:41:50.745Z,98697.00
2022-10-13T20:44:19.943Z,98694.00
2022-10-13T20:46:49.118Z,98704.00
2022-10-13T20:49:18.288Z,98697.00
2022-10-13T20:51:47.545Z,98700.00
2022-10-13T20:54:18.206Z,98697.00
2022-10-13T20:56:48.175Z,98699.00
2022-10-13T20:59:17.253Z,98694.00
2022-10-13T21:01:46.543Z,98695.00
2022-10-13T21:04:15.685Z,98699.00
2022-10-13T21:06:45.049Z,98689.00
2022-10-13T21:09:14.568Z,98699.00
2022-10-13T21:11:43.713Z,98700.00
2022-10-13T21:14:12.860Z,98706.00
2022-10-13T21:16:42.263Z,98701.00
2022-10-13T21:19:11.614Z,98706.00
2022-10-13T21:21:41.473Z,98705.00
2022-10-13T21:24:12.198Z,98714.00
2022-10-13T21:26:42.711Z,98709.00
2022-10-13T21:29:11.947Z,98707.00
2022-10-13T21:31:41.924Z,98710.00
2022-10-13T21:34:13.506Z,98710.00
2022-10-13T21:36:45.418Z,98708.00
2022-10-13T21:39:15.176Z,98709.00
2022-10-13T21:41:44.477Z,98710.00
2022-10-13T21:44:15.882Z,98714.00
2022-10-13T21:46:45.103Z,98711.00
2022-10-13T21:49:14.217Z,98715.00
2022-10-13T21:51:43.533Z,98714.00
2022-10-13T21:54:16.050Z,98705.00
2022-10-13T21:56:46.101Z,98716.00
2022-10-13T21:59:15.661Z,98709.00
2022-10-13T22:01:45.034Z,98715.00
2022-10-13T22:04:16.518Z,98712.00
2022-10-13T22:06:46.561Z,98708.00
2022-10-13T22:09:16.002Z,98721.00
2022-10-13T22:11:46.481Z,98721.00
2022-10-13T22:14:16.008Z,98723.00
2022-10-13T22:16:49.893Z,98736.00
2022-10-13T22:19:23.578Z,98743.00
2022-10-13T22:21:52.735Z,98745.00
2022-10-13T22:24:23.706Z,98753.00
2022-10-13T22:26:53.063Z,98754.00
2022-10-13T22:29:25.049Z,98757.00
2022-10-13T22:31:59.198Z,98764.00
2022-10-13T22:34:28.513Z,98761.00
2022-10-13T22:36:57.640Z,98764.00
2022-10-13T22:39:26.809Z,98762.00
2022-10-13T22:41:56.068Z,98770.00
2022-10-13T22:44:25.271Z,98772.00
2022-10-13T22:46:54.355Z,98771.00
2022-10-13T22:49:23.375Z,98767.00
2022-10-13T22:51:52.399Z,98766.00
2022-10-13T22:54:21.601Z,98776.00
2022-10-13T22:56:50.774Z,98783.00
2022-10-13T22:59:19.865Z,98771.00
2022-10-13T23:01:50.270Z,98775.00
2022-10-13T23:04:19.398Z,98779.00
2022-10-13T23:06:48.506Z,98774.00
2022-10-13T23:09:17.723Z,98782.00
2022-10-13T23:11:46.777Z,98785.00
2022-10-13T23:14:15.857Z,98793.00
2022-10-13T23:16:44.934Z,98792.00
2022-10-13T23:19:14.195Z,98788.00
2022-10-13T23:21:43.306Z,98795.00
2022-10-13T23:24:13.336Z,98793.00
2022-10-13T23:26:42.470Z,98794.00
2022-10-13T23:29:12.295Z,98803.00
2022-10-13T23:31:41.906Z,98793.00
2022-10-13T23:34:12.070Z,98801.00
2022-10-13T23:36:41.851Z,98808.00
2022-10-13T23:39:12.567Z,98811.00
2022-10-13T23:41:41.952Z,98807.00
2022-10-13T23:44:11.123Z,98812.00
2022-10-13T23:46:40.281Z,98818.00
2022-10-13T23:49:12.868Z,98815.00
2022-10-13T23:51:45.329Z,98825.00
2022-10-13T23:54:14.518Z,98826.00
2022-10-13T23:56:43.545Z,98823.00
2022-10-13T23:59:12.598Z,98815.00
